Time;durP1;ratioP1;P1;durP2;ratioP2;P2;SDS_P1;SDS_P2;PMS_P1;PMS_P2;Temp;Humidity;BMP_temperature;BMP_pressure;BME280_temperature;BME280_humidity;BME280_pressure;Samples;Min_cycle;Max_cycle;Signal;HPM_P1;HPM_P2
2023/01/18 00:01:21;;;;;;;0.93;0.90;;;;;;;6.83;86.56;96345.62;4439800;32;35116;-72
2023/01/18 00:03:49;;;;;;;0.57;0.57;;;;;;;6.40;88.69;96331.94;4439706;32;35226;-78
2023/01/18 00:06:17;;;;;;;0.68;0.68;;;;;;;7.13;86.14;96317.53;4439889;32;33766;-79
2023/01/18 00:08:45;;;;;;;0.75;0.75;;;;;;;6.80;86.49;96307.78;4439790;32;33992;-78
2023/01/18 00:11:15;;;;;;;3.70;3.40;;;;;;;6.88;86.68;96302.25;4439667;32;35079;-74
2023/01/18 00:13:44;;;;;;;1.37;1.27;;;;;;;6.88;86.23;96291.09;4439740;32;34554;-74
2023/01/18 00:16:15;;;;;;;5.37;1.85;;;;;;;6.40;89.20;96285.44;4433549;32;34097;-78
2023/01/18 00:18:48;;;;;;;0.60;0.60;;;;;;;5.83;92.88;96280.06;4439782;32;34767;-78
2023/01/18 00:21:16;;;;;;;2.65;2.45;;;;;;;6.41;90.60;96279.38;4439725;32;35797;-71
2023/01/18 00:23:45;;;;;;;1.20;1.10;;;;;;;6.97;87.17;96270.84;4439693;32;34515;-79
2023/01/18 00:26:13;;;;;;;0.50;0.50;;;;;;;7.22;85.68;96282.63;4425935;32;34322;-79
2023/01/18 00:28:42;;;;;;;0.60;0.60;;;;;;;7.30;84.95;96306.38;4439739;32;34084;-79
2023/01/18 00:31:15;;;;;;;0.45;0.45;;;;;;;6.51;88.27;96332.34;4425859;32;35120;-79
2023/01/18 00:33:45;;;;;;;0.68;0.68;;;;;;;5.76;94.45;96349.16;4425896;32;34563;-79
2023/01/18 00:36:15;;;;;;;0.85;0.85;;;;;;;5.88;94.51;96376.25;4439595;32;34156;-79
2023/01/18 00:38:50;;;;;;;0.57;0.57;;;;;;;6.13;93.10;96407.12;4439666;32;33950;-79
2023/01/18 00:41:20;;;;;;;0.50;0.50;;;;;;;6.15;95.37;96431.16;4439143;32;35820;-79
2023/01/18 00:43:48;;;;;;;0.88;0.88;;;;;;;6.17;97.19;96433.69;4439096;32;34499;-80
2023/01/18 00:46:19;;;;;;;0.50;0.50;;;;;;;6.78;94.23;96430.31;4439619;32;33308;-71
2023/01/18 00:48:48;;;;;;;0.93;0.93;;;;;;;6.43;96.48;96441.22;4439559;32;33918;-81
2023/01/18 00:51:19;;;;;;;2.10;1.95;;;;;;;6.71;94.95;96441.84;4439420;32;35157;-82
2023/01/18 00:53:48;;;;;;;1.77;1.67;;;;;;;6.73;95.40;96443.44;4439550;32;34423;-84
2023/01/18 00:56:18;;;;;;;0.68;0.68;;;;;;;6.72;95.73;96430.56;4439548;32;33675;-83
2023/01/18 00:58:46;;;;;;;0.70;0.70;;;;;;;6.52;97.72;96444.34;4439524;32;35330;-81
2023/01/18 01:01:15;;;;;;;0.70;0.70;;;;;;;6.69;95.75;96433.28;4439468;32;35138;-75
2023/01/18 01:06:43;;;;;;;;;;;;;;;6.26;97.44;96423.81;4439816;32;34381;-82
2023/01/18 01:09:14;;;;;;;1.02;1.02;;;;;;;7.03;95.10;96419.75;4439499;32;35006;-73
2023/01/18 01:12:33;;;;;;;0.88;0.85;;;;;;;6.96;94.36;96408.00;4439180;32;35052;-81
2023/01/18 01:28:30;;;;;;;0.47;0.47;;;;;;;7.51;90.02;96378.78;4439333;32;34398;-70
2023/01/18 01:30:59;;;;;;;1.05;1.05;;;;;;;6.94;91.47;96386.53;4425380;32;33925;-80
2023/01/18 01:33:28;;;;;;;0.73;0.73;;;;;;;6.83;94.22;96402.53;4439010;32;35092;-80
2023/01/18 01:36:01;;;;;;;0.73;0.73;;;;;;;6.89;93.43;96414.34;4439085;32;34658;-78
2023/01/18 01:38:30;;;;;;;2.87;2.35;;;;;;;6.69;94.15;96421.22;4425578;32;33640;-82
2023/01/18 01:41:12;;;;;;;0.40;0.40;;;;;;;6.72;95.43;96425.41;4439009;32;33944;-78
2023/01/18 01:43:47;;;;;;;0.60;0.60;;;;;;;6.68;94.59;96427.28;4425453;32;35149;-78
2023/01/18 01:46:34;;;;;;;0.85;0.85;;;;;;;6.59;95.41;96425.91;4439177;32;34468;-70
2023/01/18 01:49:02;;;;;;;0.60;0.60;;;;;;;6.92;94.42;96427.97;4439299;32;33291;-74
2023/01/18 01:51:32;;;;;;;1.75;1.65;;;;;;;6.56;95.97;96436.38;4438929;32;34829;-80
2023/01/18 01:54:02;;;;;;;0.85;0.85;;;;;;;6.36;98.96;96449.28;4438634;32;35130;-79
2023/01/18 01:56:31;;;;;;;1.35;1.27;;;;;;;6.31;97.54;96449.47;4438994;32;34501;-83
2023/01/18 01:59:00;;;;;;;0.40;0.40;;;;;;;6.02;100.00;96432.56;4439173;32;33511;-81
2023/01/18 02:01:29;;;;;;;0.77;0.77;;;;;;;6.58;98.72;96421.66;4438977;32;33987;-83
2023/01/18 02:03:59;;;;;;;1.62;1.50;;;;;;;6.38;99.47;96425.06;4438880;32;35100;-82
2023/01/18 02:06:32;;;;;;;1.17;1.17;;;;;;;6.38;99.24;96439.72;4438859;32;34473;-79
2023/01/18 02:09:10;;;;;;;0.57;0.57;;;;;;;6.52;97.66;96434.00;4438934;32;33481;-78
2023/01/18 02:11:39;;;;;;;1.60;1.50;;;;;;;6.05;98.66;96437.59;4438605;32;33923;-83
2023/01/18 02:14:13;;;;;;;1.05;1.02;;;;;;;6.18;98.63;96451.72;4425094;32;35121;-83
2023/01/18 02:17:03;;;;;;;2.10;1.50;;;;;;;6.02;99.54;96466.13;4424895;32;35498;-80
2023/01/18 02:20:00;;;;;;;0.47;0.47;;;;;;;5.92;100.00;96480.25;4438777;32;34239;-80
2023/01/18 02:22:57;;;;;;;1.75;1.12;;;;;;;5.72;100.00;96483.59;4424980;32;33977;-84
2023/01/18 02:25:53;;;;;;;0.80;0.80;;;;;;;5.61;100.00;96492.59;4438508;32;35043;-82
2023/01/18 02:28:32;;;;;;;0.60;0.60;;;;;;;5.63;100.00;96472.72;4438665;32;35298;-81
2023/01/18 02:31:14;;;;;;;0.65;0.65;;;;;;;5.97;100.00;96475.81;4425002;32;33477;-70
2023/01/18 02:34:00;;;;;;;1.65;0.80;;;;;;;6.01;98.41;96479.94;4438478;32;34846;-81
2023/01/18 02:36:31;;;;;;;;;;;;;;;5.86;100.00;96482.19;4425183;32;35159;-78
2023/01/18 02:39:05;;;;;;;0.60;0.60;;;;;;;5.34;100.00;96475.53;4424706;32;34069;-80
2023/01/18 02:47:25;;;;;;;1.25;1.15;;;;;;;5.65;99.58;96452.84;4426624;32;35102;-79
2023/01/18 02:49:55;;;;;;;1.17;1.17;;;;;;;5.61;99.80;96465.91;4438576;32;35278;-80
2023/01/18 02:52:46;;;;;;;0.88;0.88;;;;;;;5.41;100.00;96474.41;4424519;32;33320;-82
2023/01/18 02:55:22;;;;;;;1.77;1.67;;;;;;;5.25;100.00;96494.75;4438176;32;34761;-77
2023/01/18 02:57:56;;;;;;;0.60;0.60;;;;;;;5.53;100.00;96484.28;4438341;32;35921;-83
2023/01/18 03:00:24;;;;;;;0.80;0.75;;;;;;;5.73;99.12;96468.03;4424391;32;34762;-78
2023/01/18 03:02:54;;;;;;;0.60;0.60;;;;;;;5.41;99.95;96457.16;4424461;32;32932;-82
2023/01/18 03:05:23;;;;;;;1.23;1.15;;;;;;;5.17;100.00;96456.34;4438684;32;33039;-83
2023/01/18 03:07:54;;;;;;;1.58;1.30;;;;;;;5.59;99.44;96462.56;4426425;32;35993;-80
2023/01/18 03:10:27;;;;;;;0.60;0.60;;;;;;;5.28;100.00;96467.09;4426560;32;35350;-85
2023/01/18 03:13:18;;;;;;;0.93;0.93;;;;;;;5.02;100.00;96465.44;4426323;32;34195;-71
2023/01/18 03:15:50;;;;;;;0.55;0.55;;;;;;;5.36;100.00;96455.66;4426406;32;33918;-71
2023/01/18 03:18:25;;;;;;;0.80;0.80;;;;;;;5.48;100.00;96450.88;4426456;32;35028;-80
2023/01/18 03:20:56;;;;;;;1.77;1.67;;;;;;;5.50;99.33;96453.41;4440352;32;34596;-80
2023/01/18 03:23:40;;;;;;;0.50;0.50;;;;;;;5.47;99.01;96454.38;4440083;32;34331;-80
2023/01/18 03:26:19;;;;;;;0.50;0.50;;;;;;;5.70;97.74;96448.34;4427439;32;34571;-82
2023/01/18 03:34:51;;;;;;;0.45;0.45;;;;;;;5.75;96.69;96437.84;4428304;32;34451;-77
2023/01/18 03:37:27;;;;;;;0.50;0.50;;;;;;;5.89;95.99;96437.31;4440013;32;33904;-80
2023/01/18 03:40:01;;;;;;;0.60;0.60;;;;;;;6.08;95.92;96446.03;4413547;32;33615;-71
2023/01/18 03:42:34;;;;;;;1.85;1.75;;;;;;;6.43;94.28;96446.38;4426365;32;34423;-81
2023/01/18 03:45:10;;;;;;;1.60;1.50;;;;;;;6.29;94.37;96440.09;4426275;32;33508;-82
2023/01/18 03:47:38;;;;;;;2.22;2.08;;;;;;;6.17;94.40;96441.44;4426226;32;33897;-79
2023/01/18 03:50:07;;;;;;;2.10;1.20;;;;;;;6.73;93.38;96440.03;4439993;32;35503;-79
2023/01/18 03:52:43;;;;;;;0.75;0.75;;;;;;;6.55;92.21;96429.53;4425856;32;34424;-73
2023/01/18 03:55:47;;;;;;;0.50;0.50;;;;;;;6.75;90.50;96438.19;4426290;32;34153;-80
2023/01/18 03:58:19;;;;;;;0.45;0.45;;;;;;;6.70;90.54;96445.31;4426965;32;34054;-73
2023/01/18 04:00:51;;;;;;;0.70;0.70;;;;;;;6.71;91.36;96452.19;4426117;32;35140;-80
2023/01/18 04:03:19;;;;;;;0.52;0.52;;;;;;;7.13;88.77;96461.56;4426064;32;35043;-80
2023/01/18 04:05:48;;;;;;;0.60;0.60;;;;;;;6.16;94.41;96478.47;4439804;32;33578;-71
2023/01/18 04:08:17;;;;;;;3.72;1.48;;;;;;;6.63;90.75;96484.34;4439846;32;34068;-71
2023/01/18 04:10:46;;;;;;;0.65;0.65;;;;;;;6.42;91.93;96485.22;4439763;32;34163;-71
2023/01/18 04:13:14;;;;;;;0.68;0.68;;;;;;;5.77;97.28;96467.03;4425903;32;34008;-73
2023/01/18 04:15:42;;;;;;;1.05;1.05;;;;;;;6.19;95.82;96471.44;4439587;32;33453;-83
2023/01/18 04:18:11;;;;;;;1.40;1.15;;;;;;;6.38;92.83;96468.16;4439981;32;33922;-84
2023/01/18 04:20:39;;;;;;;0.68;0.65;;;;;;;6.09;94.35;96446.91;4439652;32;35025;-73
2023/01/18 04:23:07;;;;;;;1.17;0.60;;;;;;;6.17;94.67;96444.00;4425714;32;34776;-82
2023/01/18 04:25:39;;;;;;;1.58;0.77;;;;;;;6.70;92.73;96458.25;4439740;32;34405;-73
2023/01/18 04:28:07;;;;;;;0.52;0.52;;;;;;;6.58;91.91;96457.00;4439556;32;34793;-82
2023/01/18 04:30:36;;;;;;;0.77;0.77;;;;;;;5.99;94.99;96451.59;4439573;32;35001;-72
2023/01/18 04:33:04;;;;;;;0.50;0.50;;;;;;;5.83;97.47;96466.78;4439151;32;34330;-83
2023/01/18 04:35:32;;;;;;;0.80;0.73;;;;;;;6.10;96.85;96484.75;4439687;32;33354;-84
2023/01/18 04:38:01;;;;;;;1.65;1.25;;;;;;;6.35;93.21;96487.19;4439518;32;34710;-84
2023/01/18 04:40:29;;;;;;;1.55;1.45;;;;;;;6.19;94.97;96499.88;4439666;32;34600;-82
2023/01/18 04:42:57;;;;;;;0.70;0.70;;;;;;;6.22;94.22;96504.94;4439654;32;34356;-82
2023/01/18 04:45:26;;;;;;;0.82;0.82;;;;;;;5.96;96.28;96508.50;4439504;32;33430;-82
2023/01/18 04:47:54;;;;;;;0.40;0.40;;;;;;;5.89;97.48;96483.78;4439449;32;34682;-85
2023/01/18 04:50:22;;;;;;;1.15;1.15;;;;;;;7.02;90.90;96496.53;4439444;32;35055;-86
2023/01/18 04:52:51;;;;;;;0.85;0.82;;;;;;;7.26;87.17;96517.09;4425801;32;34409;-84
2023/01/18 04:55:19;;;;;;;2.58;1.75;;;;;;;6.10;93.77;96515.75;4439527;32;33439;-82
2023/01/18 04:57:55;;;;;;;0.50;0.50;;;;;;;5.66;97.81;96520.78;4439553;32;34717;-83
2023/01/18 05:00:23;;;;;;;0.82;0.82;;;;;;;5.45;99.98;96531.03;4425824;32;35782;-84
2023/01/18 05:02:51;;;;;;;1.08;1.08;;;;;;;5.83;97.75;96533.94;4450967;32;35172;-92
2023/01/18 05:05:20;;;;;;;1.15;1.15;;;;;;;6.16;95.24;96550.81;4439464;32;34330;-84
2023/01/18 05:07:48;;;;;;;0.62;0.62;;;;;;;6.44;92.39;96550.59;4439338;32;33912;-71
2023/01/18 05:10:16;;;;;;;0.40;0.40;;;;;;;5.91;96.54;96563.78;4439579;32;35894;-89
2023/01/18 05:12:44;;;;;;;0.75;0.75;;;;;;;6.14;94.15;96579.31;4439289;32;35325;-83
2023/01/18 05:15:13;;;;;;;0.40;0.40;;;;;;;6.53;90.66;96575.25;4439369;32;34469;-83
2023/01/18 05:17:41;;;;;;;0.50;0.50;;;;;;;6.40;91.60;96573.13;4439375;32;34672;-84
2023/01/18 05:20:10;;;;;;;0.50;0.50;;;;;;;6.77;89.21;96583.78;4439229;32;35065;-85
2023/01/18 05:22:39;;;;;;;0.62;0.50;;;;;;;6.35;91.41;96581.97;4439351;32;35208;-84
2023/01/18 05:25:07;;;;;;;0.40;0.40;;;;;;;5.28;97.93;96587.53;4439394;32;33527;-73
2023/01/18 05:27:36;;;;;;;0.85;0.77;;;;;;;5.80;96.78;96590.84;4438926;32;33599;-88
2023/01/18 05:30:05;;;;;;;1.55;1.30;;;;;;;6.02;94.71;96600.44;4439241;32;35056;-84
2023/01/18 05:32:34;;;;;;;0.68;0.68;;;;;;;5.66;96.63;96587.91;4439016;32;34534;-83
2023/01/18 05:35:06;;;;;;;0.40;0.40;;;;;;;5.07;99.77;96595.06;4439307;32;33465;-80
2023/01/18 05:37:34;;;;;;;1.40;1.30;;;;;;;5.66;94.67;96585.34;4439360;32;33937;-83
2023/01/18 05:40:03;;;;;;;0.90;0.85;;;;;;;5.31;94.46;96584.81;4425504;32;34957;-84
2023/01/18 05:42:31;;;;;;;5.05;1.10;;;;;;;5.06;96.37;96583.06;4439208;32;34491;-80
2023/01/18 05:44:59;;;;;;;0.50;0.50;;;;;;;5.82;91.95;96568.41;4439419;32;33439;-84
2023/01/18 05:47:27;;;;;;;0.50;0.50;;;;;;;5.60;92.35;96567.50;4439397;32;34135;-75
2023/01/18 05:49:56;;;;;;;0.40;0.40;;;;;;;5.61;90.98;96533.03;4439239;32;35099;-87
2023/01/18 05:52:25;;;;;;;0.45;0.45;;;;;;;5.58;89.33;96521.09;4439290;32;36054;-86
2023/01/18 05:54:53;;;;;;;0.50;0.50;;;;;;;5.51;89.12;96533.37;4439146;32;34257;-86
2023/01/18 05:57:21;;;;;;;0.70;0.70;;;;;;;5.67;88.48;96531.06;4439074;32;33957;-86
2023/01/18 05:59:49;;;;;;;0.68;0.68;;;;;;;5.20;91.67;96523.28;4439157;32;35039;-71
2023/01/18 06:02:17;;;;;;;0.50;0.50;;;;;;;4.96;93.13;96512.09;4438865;32;34453;-73
2023/01/18 06:04:46;;;;;;;0.50;0.50;;;;;;;5.31;91.36;96516.03;4438885;32;33566;-85
2023/01/18 06:07:15;;;;;;;0.85;0.77;;;;;;;5.56;90.17;96530.63;4438971;32;34001;-73
2023/01/18 06:09:43;;;;;;;1.08;1.08;;;;;;;5.80;87.60;96536.62;4438831;32;35138;-83
2023/01/18 06:12:12;;;;;;;0.73;0.73;;;;;;;5.85;87.31;96557.94;4438770;32;35110;-86
2023/01/18 06:14:40;;;;;;;0.75;0.75;;;;;;;5.56;88.53;96565.91;4438749;32;34163;-71
2023/01/18 06:17:08;;;;;;;1.37;1.27;;;;;;;4.89;90.17;96572.50;4439101;32;33937;-85
2023/01/18 06:19:37;;;;;;;0.95;0.90;;;;;;;4.92;91.17;96572.38;4439012;32;35119;-91
2023/01/18 06:22:05;;;;;;;0.50;0.50;;;;;;;4.77;92.11;96575.47;4439020;32;34590;-90
2023/01/18 06:24:33;;;;;;;0.47;0.47;;;;;;;4.87;91.19;96569.09;4439064;32;33411;-90
2023/01/18 06:27:02;;;;;;;0.73;0.73;;;;;;;5.38;89.30;96557.91;4438865;32;33913;-86
2023/01/18 06:29:31;;;;;;;0.70;0.47;;;;;;;5.24;89.42;96554.97;4438560;32;35162;-72
2023/01/18 06:31:59;;;;;;;0.50;0.50;;;;;;;5.47;87.35;96546.41;4438411;32;34292;-71
2023/01/18 06:34:28;;;;;;;0.40;0.40;;;;;;;5.15;88.23;96534.66;4438837;32;33571;-78
2023/01/18 06:36:57;;;;;;;0.40;0.40;;;;;;;5.12;88.66;96499.50;4438657;32;34745;-86
2023/01/18 06:39:25;;;;;;;0.50;0.50;;;;;;;4.81;90.40;96525.47;4438941;32;34619;-72
2023/01/18 06:41:54;;;;;;;0.50;0.50;;;;;;;5.04;90.46;96524.72;4427330;32;34584;-71
2023/01/18 06:44:22;;;;;;;0.50;0.50;;;;;;;5.25;88.98;96541.19;4426727;32;32436;-72
2023/01/18 06:46:50;;;;;;;0.82;0.82;;;;;;;5.18;88.12;96575.81;4440675;32;33566;-72
2023/01/18 06:49:19;;;;;;;0.52;0.52;;;;;;;4.91;89.83;96586.16;4440417;32;35955;-73
2023/01/18 06:51:47;;;;;;;0.88;0.88;;;;;;;4.48;94.72;96602.97;4440252;32;35231;-80
2023/01/18 06:54:15;;;;;;;0.60;0.60;;;;;;;4.58;93.49;96606.12;4440240;32;34472;-79
2023/01/18 06:56:44;;;;;;;0.65;0.65;;;;;;;4.79;92.07;96602.88;4440306;32;34881;-79
2023/01/18 06:59:12;;;;;;;0.50;0.50;;;;;;;4.99;88.65;96622.84;4440484;32;35064;-80
2023/01/18 07:01:40;;;;;;;0.93;0.93;;;;;;;4.34;90.85;96639.44;4440198;32;34387;-80
2023/01/18 07:04:09;;;;;;;0.50;0.50;;;;;;;4.56;90.90;96665.44;4440292;32;34125;-79
2023/01/18 07:06:38;;;;;;;0.50;0.50;;;;;;;3.99;93.82;96655.03;4424638;32;32611;-68
2023/01/18 07:09:09;;;;;;;0.50;0.50;;;;;;;4.31;91.86;96642.97;4440026;32;34669;-67
2023/01/18 07:11:42;;;;;;;1.33;1.33;;;;;;;4.04;92.13;96641.19;4440093;32;35178;-72
2023/01/18 07:14:10;;;;;;;0.50;0.50;;;;;;;4.56;89.15;96649.97;4439990;32;33464;-75
2023/01/18 07:16:39;;;;;;;0.50;0.50;;;;;;;4.28;90.91;96650.78;4440278;32;33869;-76
2023/01/18 07:19:07;;;;;;;0.50;0.50;;;;;;;4.34;90.36;96678.09;4440593;32;35058;-73
2023/01/18 07:21:36;;;;;;;0.60;0.60;;;;;;;4.24;91.61;96687.81;4440200;32;35317;-74
2023/01/18 07:24:05;;;;;;;1.85;1.75;;;;;;;3.60;96.23;96693.84;4440354;32;34176;-70
2023/01/18 07:26:33;;;;;;;0.50;0.50;;;;;;;3.94;93.44;96698.09;4440522;32;33802;-74
2023/01/18 07:29:01;;;;;;;1.45;1.42;;;;;;;3.45;95.64;96701.94;4440228;32;35058;-74
2023/01/18 07:31:30;;;;;;;0.50;0.50;;;;;;;3.50;95.42;96709.53;4440120;32;34453;-75
2023/01/18 07:33:58;;;;;;;0.73;0.73;;;;;;;3.72;94.41;96708.09;4440280;32;34307;-77
2023/01/18 07:36:26;;;;;;;0.73;0.73;;;;;;;4.28;90.73;96709.19;4439817;32;34837;-72
2023/01/18 07:38:55;;;;;;;0.50;0.50;;;;;;;4.16;90.16;96702.63;4440012;32;35028;-75
2023/01/18 07:41:25;;;;;;;0.60;0.60;;;;;;;3.58;93.50;96705.03;4426145;32;34843;-68
2023/01/18 07:43:54;;;;;;;0.93;0.70;;;;;;;4.19;93.10;96720.59;4440144;32;34224;-68
2023/01/18 07:46:24;;;;;;;0.50;0.50;;;;;;;4.43;90.80;96713.91;4439736;32;34166;-73
2023/01/18 07:48:53;;;;;;;0.57;0.57;;;;;;;4.55;87.95;96720.44;4439887;32;34798;-78
2023/01/18 07:51:21;;;;;;;0.90;0.90;;;;;;;3.64;95.90;96737.50;4439325;32;34160;-69
2023/01/18 07:53:54;;;;;;;0.70;0.70;;;;;;;3.57;97.29;96747.94;4439962;32;33477;-67
2023/01/18 07:56:24;;;;;;;0.57;0.57;;;;;;;4.18;92.93;96754.94;4439475;32;34032;-74
2023/01/18 07:58:52;;;;;;;0.50;0.50;;;;;;;3.68;97.29;96752.81;4439923;32;34139;-67
2023/01/18 08:01:22;;;;;;;0.50;0.50;;;;;;;4.37;95.03;96768.19;4439768;32;34423;-68
2023/01/18 08:03:53;;;;;;;0.50;0.50;;;;;;;3.94;95.90;96785.63;4439962;32;34030;-71
2023/01/18 08:06:26;;;;;;;0.60;0.60;;;;;;;4.05;95.76;96790.50;4439514;32;34800;-75
2023/01/18 08:08:55;;;;;;;0.50;0.50;;;;;;;4.10;94.90;96803.25;4439639;32;34580;-68
2023/01/18 08:11:25;;;;;;;0.50;0.50;;;;;;;4.35;93.79;96808.59;4439465;32;35281;-68
2023/01/18 08:13:53;;;;;;;0.50;0.50;;;;;;;4.25;95.57;96804.56;4439446;32;33604;-69
2023/01/18 08:16:23;;;;;;;0.50;0.50;;;;;;;4.54;95.21;96811.53;4439241;32;34815;-78
2023/01/18 08:18:51;;;;;;;0.50;0.50;;;;;;;4.68;93.82;96809.41;4439444;32;35814;-73
2023/01/18 08:21:19;;;;;;;0.50;0.50;;;;;;;5.09;92.63;96814.25;4439382;32;34519;-78
2023/01/18 08:23:50;;;;;;;0.70;0.70;;;;;;;4.81;95.27;96840.00;4439431;32;33435;-68
2023/01/18 08:26:18;;;;;;;0.55;0.55;;;;;;;4.79;94.95;96834.88;4425885;32;34835;-68
2023/01/18 08:28:46;;;;;;;0.50;0.50;;;;;;;4.69;94.61;96839.44;4439374;32;35335;-75
2023/01/18 08:31:17;;;;;;;0.50;0.50;;;;;;;4.71;93.98;96842.84;4439448;32;34626;-69
2023/01/18 08:33:47;;;;;;;0.50;0.50;;;;;;;5.26;92.42;96831.84;4439286;32;34621;-68
2023/01/18 08:36:19;;;;;;;0.40;0.40;;;;;;;5.62;91.58;96826.41;4407123;32;33148;-68
2023/01/18 08:38:51;;;;;;;0.50;0.50;;;;;;;5.55;94.02;96830.94;4439507;32;35154;-79
2023/01/18 08:41:22;;;;;;;0.50;0.50;;;;;;;6.38;86.40;96824.81;4439227;32;34470;-73
2023/01/18 08:43:51;;;;;;;0.50;0.50;;;;;;;6.16;88.00;96835.03;4439420;32;33177;-71
2023/01/18 08:46:20;;;;;;;0.50;0.50;;;;;;;6.29;87.83;96840.66;4412666;32;32437;-75
2023/01/18 08:48:51;;;;;;;0.40;0.40;;;;;;;6.62;85.05;96843.81;4439334;32;34260;-67
2023/01/18 08:51:21;;;;;;;0.50;0.50;;;;;;;6.60;83.59;96841.28;4438929;32;34430;-69
2023/01/18 08:53:53;;;;;;;0.50;0.50;;;;;;;6.16;85.34;96851.41;4439065;32;34256;-72
2023/01/18 08:56:21;;;;;;;0.47;0.47;;;;;;;6.02;85.34;96858.75;4439119;32;33877;-71
2023/01/18 08:58:50;;;;;;;0.50;0.50;;;;;;;6.07;83.67;96877.50;4439283;32;35008;-69
2023/01/18 09:01:21;;;;;;;0.43;0.43;;;;;;;6.02;84.47;96877.69;4438734;32;35249;-72
2023/01/18 09:03:54;;;;;;;0.40;0.40;;;;;;;5.77;85.38;96890.50;4437963;32;33462;-73
2023/01/18 09:06:23;;;;;;;0.40;0.40;;;;;;;5.98;86.32;96898.47;4445548;32;33898;-69
2023/01/18 09:08:53;;;;;;;0.50;0.50;;;;;;;5.53;87.42;96912.72;4454743;32;33883;-69
2023/01/18 09:11:21;;;;;;;0.40;0.40;;;;;;;5.58;92.35;96925.50;4454175;32;34498;-69
2023/01/18 09:13:54;;;;;;;0.50;0.50;;;;;;;5.84;88.70;96942.78;4454682;32;33566;-67
2023/01/18 09:16:28;;;;;;;0.50;0.50;;;;;;;6.18;89.37;96955.53;4440938;32;33658;-69
2023/01/18 09:18:58;;;;;;;0.65;0.65;;;;;;;6.43;86.16;96975.44;4440716;32;35067;-70
2023/01/18 09:21:33;;;;;;;0.50;0.50;;;;;;;6.43;88.89;96980.59;4454199;32;34822;-74
2023/01/18 09:24:01;;;;;;;0.50;0.50;;;;;;;6.74;85.83;96989.94;4454788;32;33727;-72
2023/01/18 09:26:29;;;;;;;0.40;0.40;;;;;;;6.14;87.49;97003.06;4454327;32;33652;-68
2023/01/18 09:28:58;;;;;;;0.60;0.60;;;;;;;6.30;88.58;97007.72;4440494;32;35155;-67
2023/01/18 09:31:27;;;;;;;0.73;0.73;;;;;;;5.20;94.51;97012.59;4453999;32;34662;-73
2023/01/18 09:33:56;;;;;;;1.12;1.12;;;;;;;6.05;88.66;97026.56;4425356;32;33475;-68
2023/01/18 09:36:45;;;;;;;0.40;0.40;;;;;;;6.03;87.90;97044.69;4419742;32;34073;-68
2023/01/18 09:39:13;;;;;;;0.50;0.50;;;;;;;5.47;92.06;97029.91;4435031;32;35101;-69
2023/01/18 09:41:51;;;;;;;0.50;0.50;;;;;;;4.91;97.33;97021.94;4409485;32;33740;-71
2023/01/18 09:44:30;;;;;;;0.70;0.70;;;;;;;5.28;95.81;97045.03;4410214;32;33469;-70
2023/01/18 09:46:58;;;;;;;;;;;;;;;5.24;94.73;97055.47;4423734;32;34027;-76
2023/01/18 09:49:55;;;;;;;0.85;0.73;;;;;;;5.61;93.36;97054.47;4423594;32;35124;-68
2023/01/18 09:52:51;;;;;;;0.50;0.50;;;;;;;5.73;92.97;97059.28;4423101;32;34536;-76
2023/01/18 09:55:38;;;;;;;0.55;0.55;;;;;;;5.44;93.45;97053.22;4397050;32;32715;-68
2023/01/18 09:58:15;;;;;;;0.55;0.55;;;;;;;5.80;92.83;97054.81;4423724;32;34093;-70
2023/01/18 10:00:45;;;;;;;0.50;0.50;;;;;;;6.02;91.69;97052.50;4423177;32;35858;-71
2023/01/18 10:03:28;;;;;;;0.52;0.52;;;;;;;5.93;93.17;97051.00;4450195;32;34607;-72
2023/01/18 10:06:08;;;;;;;0.73;0.73;;;;;;;6.29;91.52;97057.75;4424951;32;33381;-74
2023/01/18 10:08:52;;;;;;;1.08;0.70;;;;;;;6.01;91.76;97061.13;4438762;32;34785;-69
2023/01/18 10:11:42;;;;;;;0.82;0.82;;;;;;;6.32;90.10;97070.53;4438299;32;35167;-71
2023/01/18 10:14:22;;;;;;;0.70;0.70;;;;;;;6.03;92.11;97082.59;4438230;32;34525;-67
2023/01/18 10:16:59;;;;;;;0.50;0.50;;;;;;;6.48;90.35;97084.72;4424564;32;33647;-70
2023/01/18 10:19:29;;;;;;;0.73;0.73;;;;;;;6.94;90.09;97106.53;4424606;32;34739;-68
2023/01/18 10:22:22;;;;;;;0.60;0.60;;;;;;;7.29;86.02;97109.72;4438306;32;34229;-67
2023/01/18 10:25:09;;;;;;;0.50;0.50;;;;;;;8.58;81.76;97104.25;4438455;32;34509;-68
2023/01/18 10:27:45;;;;;;;;;;;;;;;10.78;69.96;97100.03;4438644;32;33609;-69
2023/01/18 10:30:45;;;;;;;0.43;0.43;;;;;;;10.74;69.99;97098.47;4438606;32;34793;-66
2023/01/18 10:33:19;;;;;;;0.45;0.45;;;;;;;10.56;68.01;97105.37;4449054;32;34785;-70
2023/01/18 10:35:50;;;;;;;0.40;0.40;;;;;;;11.85;64.29;97103.41;4440060;32;34480;-71
2023/01/18 10:38:23;;;;;;;0.45;0.45;;;;;;;11.53;62.20;97115.50;4453397;32;33468;-66
2023/01/18 10:41:00;;;;;;;0.70;0.70;;;;;;;11.15;63.44;97134.72;4453739;32;33997;-68
2023/01/18 10:43:30;;;;;;;0.40;0.40;;;;;;;10.37;65.74;97136.59;4422895;32;35182;-68
2023/01/18 10:45:59;;;;;;;0.40;0.40;;;;;;;10.19;69.03;97134.81;4409248;32;34603;-71
2023/01/18 10:48:30;;;;;;;0.40;0.40;;;;;;;11.39;63.88;97143.06;4422700;32;33534;-67
2023/01/18 10:51:04;;;;;;;1.17;1.17;;;;;;;10.24;67.35;97164.06;4422727;32;34013;-75
2023/01/18 10:53:35;;;;;;;1.52;0.45;;;;;;;9.76;67.23;97168.72;4422528;32;35095;-72
2023/01/18 10:56:25;;;;;;;0.40;0.40;;;;;;;9.18;69.61;97181.53;4422446;32;35276;-76
2023/01/18 10:58:56;;;;;;;0.40;0.40;;;;;;;8.86;73.03;97192.25;4422574;32;33436;-71
2023/01/18 11:01:29;;;;;;;0.40;0.40;;;;;;;9.52;70.94;97190.53;4424300;32;33584;-67
2023/01/18 11:04:05;;;;;;;0.40;0.40;;;;;;;9.25;71.73;97194.19;4424272;32;34950;-67
2023/01/18 11:06:48;;;;;;;0.40;0.40;;;;;;;9.27;71.78;97189.78;4424298;32;34463;-68
2023/01/18 11:09:40;;;;;;;0.50;0.50;;;;;;;9.70;74.15;97186.31;4437976;32;34511;-71
2023/01/18 11:12:32;;;;;;;0.40;0.40;;;;;;;9.43;71.30;97194.34;4437692;32;33782;-67
2023/01/18 11:15:13;;;;;;;0.60;0.60;;;;;;;9.87;71.48;97191.66;4424285;32;35162;-67
2023/01/18 11:17:55;;;;;;;0.60;0.60;;;;;;;9.22;70.99;97211.63;4438190;32;34298;-78
2023/01/18 11:20:46;;;;;;;0.50;0.50;;;;;;;9.00;71.82;97224.59;4437822;32;33403;-78
2023/01/18 11:23:16;;;;;;;0.45;0.45;;;;;;;8.88;71.74;97231.97;4438217;32;34671;-71
2023/01/18 11:26:05;;;;;;;1.95;0.70;;;;;;;9.76;70.04;97230.22;4437654;32;35114;-76
2023/01/18 11:28:39;;;;;;;0.40;0.40;;;;;;;9.16;69.28;97228.31;4440038;32;34425;-77
2023/01/18 11:31:11;;;;;;;0.43;0.43;;;;;;;8.68;71.77;97235.31;4420843;32;174947;-71
2023/01/18 11:33:56;;;;;;;0.60;0.60;;;;;;;8.79;73.17;97236.63;4439731;32;34037;-69
2023/01/18 11:36:40;;;;;;;0.40;0.40;;;;;;;8.43;72.77;97239.69;4413377;32;35435;-78
2023/01/18 11:39:28;;;;;;;0.50;0.50;;;;;;;8.34;73.93;97252.03;4439898;32;35061;-79
2023/01/18 11:42:10;;;;;;;0.47;0.47;;;;;;;8.35;74.44;97256.34;4439975;32;34338;-79
2023/01/18 11:45:06;;;;;;;0.40;0.40;;;;;;;8.99;70.57;97254.06;4426180;32;34015;-80
2023/01/18 11:48:15;;;;;;;0.50;0.50;;;;;;;8.80;71.55;97254.75;4439907;32;35125;-80
2023/01/18 11:50:51;;;;;;;0.60;0.60;;;;;;;9.44;67.79;97277.41;4439932;32;35472;-76
2023/01/18 11:53:35;;;;;;;0.50;0.50;;;;;;;8.72;71.92;97280.16;4439615;32;33838;-80
2023/01/18 11:56:12;;;;;;;0.50;0.50;;;;;;;8.63;72.26;97283.06;4439854;32;33958;-76
2023/01/18 11:58:40;;;;;;;0.70;0.70;;;;;;;8.67;71.47;97282.06;4439873;32;34647;-79
2023/01/18 12:01:29;;;;;;;0.40;0.40;;;;;;;8.50;72.97;97282.66;4439828;32;34534;-77
2023/01/18 12:04:13;;;;;;;0.45;0.45;;;;;;;8.84;71.04;97292.69;4439867;32;33719;-78
2023/01/18 12:07:03;;;;;;;0.43;0.43;;;;;;;8.94;71.25;97295.75;4439790;32;33985;-79
2023/01/18 12:09:44;;;;;;;0.40;0.40;;;;;;;8.90;72.83;97301.97;4438628;32;35152;-67
2023/01/18 12:12:43;;;;;;;0.90;0.70;;;;;;;8.71;74.34;97305.22;4425689;32;33880;-70
2023/01/18 12:15:23;;;;;;;0.40;0.40;;;;;;;9.33;71.42;97304.72;4425841;32;33491;-67
2023/01/18 12:18:00;;;;;;;0.40;0.40;;;;;;;9.24;70.76;97311.94;4439489;32;33994;-72
2023/01/18 12:21:10;;;;;;;0.50;0.50;;;;;;;8.96;72.76;97321.66;4439496;32;35243;-67
2023/01/18 12:24:00;;;;;;;0.50;0.50;;;;;;;9.71;69.89;97330.97;4439413;32;35342;-74
2023/01/18 12:26:51;;;;;;;0.60;0.60;;;;;;;9.68;68.38;97330.16;4439577;32;33552;-74
2023/01/18 12:29:56;;;;;;;0.40;0.40;;;;;;;9.25;71.00;97334.41;4439319;32;34856;-75
2023/01/18 12:32:49;;;;;;;0.32;0.32;;;;;;;9.66;70.93;97339.75;4439292;32;35136;-77
2023/01/18 12:35:44;;;;;;;0.40;0.40;;;;;;;10.73;64.77;97338.88;4439280;32;34489;-68
2023/01/18 12:38:21;;;;;;;0.95;0.93;;;;;;;11.49;63.61;97348.53;4439418;32;33618;-68
2023/01/18 12:41:24;;;;;;;0.62;0.62;;;;;;;10.69;63.89;97352.91;4439378;32;34140;-71